Time;durP1;ratioP1;P1;durP2;ratioP2;P2;SDS_P1;SDS_P2;PMS_P1;PMS_P2;Temp;Humidity;BMP_temperature;BMP_pressure;BME280_temperature;BME280_humidity;BME280_pressure;Samples;Min_cycle;Max_cycle;Signal;HPM_P1;HPM_P2
2023/02/10 00:01:23;;;;;;;27.80;12.25;;;;;;;12.53;38.33;103358.72;5032775;28;20042;-63
2023/02/10 00:03:49;;;;;;;33.55;12.82;;;;;;;12.50;39.31;103365.13;5032825;28;20032;-63
2023/02/10 00:06:15;;;;;;;26.40;12.68;;;;;;;12.48;38.46;103364.31;5033531;28;20033;-63
2023/02/10 00:08:41;;;;;;;31.77;13.13;;;;;;;12.46;39.24;103368.91;5032803;28;20068;-64
2023/02/10 00:11:09;;;;;;;35.05;13.82;;;;;;;12.45;38.50;103374.38;5032835;28;20072;-63
2023/02/10 00:13:36;;;;;;;30.13;13.13;;;;;;;12.43;39.07;103373.56;5031528;28;20401;-64
2023/02/10 00:16:02;;;;;;;27.08;11.95;;;;;;;12.42;39.47;103371.84;5032890;28;20123;-65
2023/02/10 00:18:28;;;;;;;30.40;12.50;;;;;;;12.42;38.53;103361.97;5033282;28;20037;-63
2023/02/10 00:20:54;;;;;;;28.63;13.38;;;;;;;12.41;39.10;103370.09;5036623;28;20413;-64
2023/02/10 00:23:19;;;;;;;28.65;11.85;;;;;;;12.40;39.57;103373.72;5036647;28;20129;-64
2023/02/10 00:25:44;;;;;;;24.80;12.15;;;;;;;12.39;38.93;103369.31;5036581;28;20054;-63
2023/02/10 00:28:10;;;;;;;27.73;12.10;;;;;;;12.37;39.77;103357.78;5045425;28;20057;-64
2023/02/10 00:30:36;;;;;;;29.58;12.75;;;;;;;12.36;40.04;103367.66;5056482;28;20029;-63
2023/02/10 00:33:01;;;;;;;25.77;13.45;;;;;;;12.35;39.53;103373.09;5056879;28;20021;-63
2023/02/10 00:35:27;;;;;;;29.17;11.57;;;;;;;12.35;39.13;103376.66;5056178;28;20044;-63
2023/02/10 00:37:52;;;;;;;33.70;13.15;;;;;;;12.36;39.02;103375.72;5056169;28;20033;-63
2023/02/10 00:40:18;;;;;;;28.77;12.73;;;;;;;12.37;39.25;103373.91;5056113;28;20119;-63
2023/02/10 00:42:43;;;;;;;27.75;11.73;;;;;;;12.37;39.13;103373.91;5056039;28;20021;-64
2023/02/10 00:45:09;;;;;;;27.15;13.10;;;;;;;12.38;39.46;103372.94;5056138;28;20029;-64
2023/02/10 00:47:34;;;;;;;28.52;12.73;;;;;;;12.37;40.02;103365.84;5056068;28;20048;-63
2023/02/10 00:49:59;;;;;;;28.17;12.48;;;;;;;12.36;39.51;103372.16;5056001;28;20481;-64
2023/02/10 00:52:25;;;;;;;28.35;11.90;;;;;;;12.36;39.15;103377.53;5054941;28;20037;-63
2023/02/10 00:54:50;;;;;;;24.65;12.35;;;;;;;12.36;40.01;103380.22;5055614;28;20038;-62
2023/02/10 00:57:16;;;;;;;31.35;14.35;;;;;;;12.36;39.25;103382.91;5056066;28;20025;-62
2023/02/10 00:59:41;;;;;;;29.88;13.07;;;;;;;12.34;39.79;103384.81;5056000;28;20111;-63
2023/02/10 01:02:06;;;;;;;24.38;12.15;;;;;;;12.33;39.74;103392.00;5055922;28;20037;-64
2023/02/10 01:04:32;;;;;;;30.60;13.05;;;;;;;12.30;39.77;103388.59;5055803;28;20031;-64
2023/02/10 01:06:57;;;;;;;30.05;12.60;;;;;;;12.29;40.04;103382.34;5055876;28;20493;-64
2023/02/10 01:09:23;;;;;;;31.30;13.52;;;;;;;12.28;39.97;103386.00;5056059;28;20481;-65
2023/02/10 01:11:49;;;;;;;32.95;13.95;;;;;;;12.29;39.91;103382.34;5055549;28;20067;-62
2023/02/10 01:14:14;;;;;;;28.48;12.85;;;;;;;12.28;39.32;103383.31;5054384;28;20052;-63
2023/02/10 01:16:39;;;;;;;29.67;12.88;;;;;;;12.28;39.97;103386.00;5055426;28;20491;-63
2023/02/10 01:19:05;;;;;;;28.60;12.15;;;;;;;12.25;40.32;103389.69;5054089;28;20033;-64
2023/02/10 01:21:31;;;;;;;25.75;12.30;;;;;;;12.25;39.49;103391.53;5055898;28;20033;-64
2023/02/10 01:23:56;;;;;;;29.10;13.57;;;;;;;12.25;39.59;103392.38;5054150;28;20037;-63
2023/02/10 01:26:22;;;;;;;28.95;13.30;;;;;;;12.24;40.05;103390.66;5055194;28;20429;-64
2023/02/10 01:28:47;;;;;;;28.52;13.23;;;;;;;12.23;39.97;103394.25;5055205;28;20051;-63
2023/02/10 01:31:18;;;;;;;32.42;14.35;;;;;;;12.24;39.82;103396.00;5054869;28;20398;-65
2023/02/10 01:33:44;;;;;;;30.00;14.98;;;;;;;12.24;40.37;103398.72;5055107;28;20033;-62
2023/02/10 01:36:12;;;;;;;31.70;12.95;;;;;;;12.23;39.62;103399.63;5055949;28;20031;-63
2023/02/10 01:38:38;;;;;;;31.17;12.85;;;;;;;12.23;39.67;103398.75;5053629;28;20037;-65
2023/02/10 01:41:04;;;;;;;34.70;13.27;;;;;;;12.23;40.07;103401.44;5055080;28;20044;-63
2023/02/10 01:43:30;;;;;;;31.17;13.55;;;;;;;12.20;40.07;103413.22;5055011;28;20040;-63
2023/02/10 01:45:55;;;;;;;30.17;12.55;;;;;;;12.21;39.68;103411.41;5053772;28;20032;-63
2023/02/10 01:48:22;;;;;;;28.95;13.25;;;;;;;12.18;40.37;103417.81;5055349;28;20029;-63
2023/02/10 01:50:52;;;;;;;34.50;12.27;;;;;;;12.15;40.13;103414.41;5054680;28;20386;-63
2023/02/10 01:53:17;;;;;;;30.10;12.82;;;;;;;12.14;39.81;103410.84;5054805;28;20037;-64
2023/02/10 01:55:45;;;;;;;31.33;13.68;;;;;;;12.12;40.26;103407.38;5054987;28;20171;-63
2023/02/10 01:58:13;;;;;;;30.73;13.45;;;;;;;12.12;40.09;103404.69;5054898;28;20044;-63
2023/02/10 02:00:39;;;;;;;29.10;13.25;;;;;;;12.08;40.05;103413.84;5054757;28;20166;-64
2023/02/10 02:03:04;;;;;;;33.63;12.95;;;;;;;12.07;39.83;103412.09;5055256;28;20484;-64
2023/02/10 02:05:33;;;;;;;30.05;13.65;;;;;;;12.07;40.16;103408.53;5053523;28;20040;-63
2023/02/10 02:08:02;;;;;;;40.67;13.68;;;;;;;12.06;40.31;103412.19;5054541;28;20041;-65
2023/02/10 02:10:43;;;;;;;33.33;14.65;;;;;;;12.03;40.19;103407.81;5054463;28;20037;-64
2023/02/10 02:13:33;;;;;;;25.52;12.23;;;;;;;12.00;40.19;103410.69;5054831;28;20039;-63
2023/02/10 02:16:29;;;;;;;28.65;12.48;;;;;;;11.98;40.37;103420.59;5053113;28;20473;-63
2023/02/10 02:19:16;;;;;;;24.48;11.35;;;;;;;11.94;40.36;103419.03;5054754;28;20048;-63
2023/02/10 02:22:14;;;;;;;32.10;12.95;;;;;;;11.91;40.27;103426.34;5053147;28;20036;-64
2023/02/10 02:24:54;;;;;;;29.02;13.13;;;;;;;11.88;40.62;103424.69;5052929;28;20087;-65
2023/02/10 02:27:32;;;;;;;27.90;12.93;;;;;;;11.85;40.35;103427.53;5053080;28;20126;-63
2023/02/10 02:30:12;;;;;;;25.15;11.27;;;;;;;11.84;40.35;103427.56;5054097;28;20120;-64
2023/02/10 02:32:42;;;;;;;28.80;13.18;;;;;;;11.82;40.53;103426.78;5053890;28;20045;-63
2023/02/10 02:35:12;;;;;;;31.45;12.60;;;;;;;11.80;40.69;103416.13;5052614;28;20119;-63
2023/02/10 02:37:41;;;;;;;23.30;11.93;;;;;;;11.79;40.65;103435.00;5052642;28;20120;-65
2023/02/10 02:40:07;;;;;;;28.33;12.55;;;;;;;11.77;40.42;103427.03;5052926;28;20033;-64
2023/02/10 02:42:33;;;;;;;31.48;13.93;;;;;;;11.76;40.32;103432.44;5053745;28;20377;-63
2023/02/10 02:45:04;;;;;;;29.92;12.88;;;;;;;11.75;40.38;103428.03;5054200;28;20124;-64
2023/02/10 02:47:42;;;;;;;32.72;12.63;;;;;;;11.74;40.45;103431.66;5053796;28;20040;-64
2023/02/10 02:50:27;;;;;;;27.50;12.52;;;;;;;11.71;40.81;103432.69;5053656;28;20063;-63
2023/02/10 02:52:58;;;;;;;28.02;12.65;;;;;;;11.67;40.51;103434.59;5053610;28;20069;-63
2023/02/10 02:55:45;;;;;;;30.38;13.20;;;;;;;11.66;40.64;103424.81;5053819;28;20064;-63
2023/02/10 02:58:16;;;;;;;29.75;13.50;;;;;;;11.64;40.52;103431.22;5052233;28;20044;-63
2023/02/10 03:00:41;;;;;;;31.25;13.27;;;;;;;11.60;40.64;103433.16;5053370;28;20040;-64
2023/02/10 03:03:08;;;;;;;29.63;12.60;;;;;;;11.57;40.26;103419.00;5052841;28;20028;-64
2023/02/10 03:05:34;;;;;;;28.48;13.52;;;;;;;11.50;41.05;103413.03;5052294;28;20115;-63
2023/02/10 03:08:00;;;;;;;31.92;12.82;;;;;;;11.47;40.95;103406.97;5052323;28;20121;-63
2023/02/10 03:10:25;;;;;;;30.73;13.75;;;;;;;11.40;40.80;103405.50;5053479;28;20033;-63
2023/02/10 03:12:50;;;;;;;26.02;13.18;;;;;;;11.34;40.59;103400.41;5053545;28;20033;-64
2023/02/10 03:15:16;;;;;;;28.60;11.77;;;;;;;11.28;40.93;103393.50;5053160;28;20033;-63
2023/02/10 03:17:42;;;;;;;36.17;14.38;;;;;;;11.23;41.06;103386.63;5053174;28;20052;-64
2023/02/10 03:20:08;;;;;;;37.28;12.77;;;;;;;11.18;41.23;103376.09;5053531;28;20048;-63
2023/02/10 03:22:34;;;;;;;28.08;13.23;;;;;;;11.16;41.17;103380.69;5051916;28;20044;-65
2023/02/10 03:24:59;;;;;;;36.92;14.57;;;;;;;11.13;41.04;103374.56;5053469;28;20036;-64
2023/02/10 03:27:25;;;;;;;35.05;14.43;;;;;;;11.11;40.91;103391.59;5053356;28;20555;-64
2023/02/10 03:29:52;;;;;;;29.30;13.35;;;;;;;11.10;41.03;103395.25;5053109;28;20115;-62
2023/02/10 03:32:18;;;;;;;32.15;13.40;;;;;;;11.11;41.33;103396.97;5053050;28;20049;-64
2023/02/10 03:34:43;;;;;;;30.55;13.45;;;;;;;11.14;41.42;103397.78;5051716;28;20033;-65
2023/02/10 03:37:09;;;;;;;38.67;13.95;;;;;;;11.18;41.53;103399.38;5053228;28;20515;-64
2023/02/10 03:39:34;;;;;;;31.02;13.60;;;;;;;11.20;41.11;103402.84;5053021;28;20032;-63
2023/02/10 03:41:59;;;;;;;34.53;13.93;;;;;;;11.22;40.92;103403.66;5053457;28;20025;-63
2023/02/10 03:44:25;;;;;;;38.38;13.98;;;;;;;11.21;41.33;103410.84;5051736;28;20037;-62
2023/02/10 03:46:51;;;;;;;30.17;12.57;;;;;;;11.24;41.46;103404.47;5051843;28;20127;-64
2023/02/10 03:49:16;;;;;;;34.40;14.20;;;;;;;11.24;41.09;103407.16;5051886;28;20044;-64
2023/02/10 03:51:41;;;;;;;35.15;13.90;;;;;;;11.23;41.31;103405.38;5055421;28;20029;-64
2023/02/10 03:54:07;;;;;;;32.83;14.27;;;;;;;11.23;41.68;103418.81;5059044;28;20039;-65
2023/02/10 03:56:32;;;;;;;27.77;13.35;;;;;;;11.22;41.38;103409.03;5059663;28;20041;-64
2023/02/10 03:59:01;;;;;;;33.50;13.15;;;;;;;11.21;41.26;103423.38;5058202;28;20037;-63
2023/02/10 04:01:26;;;;;;;32.35;13.65;;;;;;;11.22;41.40;103427.81;5059437;28;20029;-63
2023/02/10 04:03:51;;;;;;;29.00;12.57;;;;;;;11.22;41.68;103423.31;5059255;28;20036;-63
2023/02/10 04:06:17;;;;;;;27.05;13.20;;;;;;;11.22;41.19;103428.69;5059766;28;20035;-64
2023/02/10 04:08:42;;;;;;;25.60;12.05;;;;;;;11.24;41.25;103425.91;5059444;28;20441;-63
2023/02/10 04:11:09;;;;;;;31.30;13.52;;;;;;;11.24;41.16;103431.28;5059439;28;20029;-63
2023/02/10 04:13:35;;;;;;;28.80;13.38;;;;;;;11.22;41.17;103439.41;5059338;28;20033;-64
2023/02/10 04:16:20;;;;;;;35.28;13.85;;;;;;;11.19;41.11;103436.00;5057983;28;20051;-64
2023/02/10 04:18:45;;;;;;;27.25;14.13;;;;;;;11.17;41.46;103440.56;5059476;28;20037;-65
2023/02/10 04:21:11;;;;;;;27.65;12.18;;;;;;;11.15;41.14;103442.44;5059895;28;20488;-64
2023/02/10 04:23:37;;;;;;;30.42;12.30;;;;;;;11.13;41.41;103447.00;5059079;28;20129;-64
2023/02/10 04:26:03;;;;;;;30.63;13.52;;;;;;;11.09;40.98;103447.13;5059217;28;20126;-63
2023/02/10 04:28:29;;;;;;;28.17;12.57;;;;;;;11.06;41.21;103451.75;5058089;28;20043;-65
2023/02/10 04:30:57;;;;;;;39.33;14.55;;;;;;;11.02;40.97;103448.34;5058986;28;20037;-63
2023/02/10 04:33:24;;;;;;;27.98;14.27;;;;;;;10.99;41.23;103447.63;5058457;28;20384;-63
2023/02/10 04:35:51;;;;;;;39.75;14.75;;;;;;;10.94;40.93;103450.47;5057935;28;20037;-63
2023/02/10 04:38:16;;;;;;;26.27;12.65;;;;;;;10.89;41.38;103447.13;5059051;28;20044;-64
2023/02/10 04:40:42;;;;;;;36.38;14.85;;;;;;;10.85;41.21;103447.34;5059145;28;20033;-63
2023/02/10 04:43:08;;;;;;;29.17;13.57;;;;;;;10.80;40.85;103452.91;5059207;28;20033;-65
2023/02/10 04:45:33;;;;;;;32.67;13.27;;;;;;;10.74;41.19;103442.44;5059018;28;20032;-63
2023/02/10 04:47:59;;;;;;;32.45;13.05;;;;;;;10.69;41.37;103451.63;5059571;28;20079;-64
2023/02/10 04:50:24;;;;;;;28.10;12.77;;;;;;;10.62;41.26;103447.44;5059023;28;20511;-64
2023/02/10 04:52:50;;;;;;;30.25;11.55;;;;;;;10.56;40.99;103459.31;5059340;28;20075;-64
2023/02/10 04:55:15;;;;;;;34.40;11.77;;;;;;;10.50;40.96;103446.16;5060082;28;20029;-62
2023/02/10 04:57:41;;;;;;;32.40;13.07;;;;;;;10.45;40.66;103445.47;5059111;28;20037;-64
2023/02/10 05:00:06;;;;;;;24.13;11.68;;;;;;;10.41;40.97;103443.88;5059521;28;20049;-63
2023/02/10 05:02:32;;;;;;;28.48;12.60;;;;;;;10.37;41.01;103436.91;5058974;28;20037;-63
2023/02/10 05:04:58;;;;;;;26.52;12.63;;;;;;;10.34;41.34;103437.91;5056596;28;20111;-64
2023/02/10 05:07:23;;;;;;;33.65;13.40;;;;;;;10.33;41.33;103443.34;5056016;28;20442;-64
2023/02/10 05:09:48;;;;;;;37.38;14.35;;;;;;;10.31;40.99;103439.81;5055768;28;20115;-65
2023/02/10 05:12:14;;;;;;;37.22;13.98;;;;;;;10.31;41.20;103442.50;5054899;28;20541;-64
2023/02/10 05:14:39;;;;;;;34.10;14.75;;;;;;;10.30;41.90;103440.78;5055728;28;20066;-63
2023/02/10 05:17:04;;;;;;;35.22;14.23;;;;;;;10.27;41.42;103431.03;5055445;28;20041;-62
2023/02/10 05:19:30;;;;;;;32.72;13.88;;;;;;;10.28;41.52;103432.78;5055611;28;20465;-64
2023/02/10 05:21:55;;;;;;;34.95;14.13;;;;;;;10.26;41.96;103434.66;5055514;28;20033;-64
2023/02/10 05:24:20;;;;;;;31.02;14.45;;;;;;;10.26;41.33;103434.66;5056059;28;20041;-64
2023/02/10 05:26:46;;;;;;;34.10;12.65;;;;;;;10.25;41.27;103437.38;5055363;28;20421;-65
2023/02/10 05:29:11;;;;;;;35.80;15.10;;;;;;;10.22;41.64;103440.19;5054120;28;20120;-64
2023/02/10 05:31:36;;;;;;;30.77;12.95;;;;;;;10.23;41.90;103445.50;5055239;28;20481;-65
2023/02/10 05:34:02;;;;;;;28.23;13.18;;;;;;;10.23;41.83;103444.63;5055152;28;20036;-65
2023/02/10 05:36:27;;;;;;;40.30;14.75;;;;;;;10.22;41.76;103454.47;5055388;28;20029;-64
2023/02/10 05:41:36;;;;;;;29.33;14.15;;;;;;;10.25;41.70;103465.06;5055099;28;20044;-63
2023/02/10 05:44:02;;;;;;;37.55;14.77;;;;;;;10.26;42.22;103465.94;5055057;28;20037;-63
2023/02/10 05:46:27;;;;;;;33.28;13.27;;;;;;;10.29;42.03;103468.50;5054012;28;20385;-64
2023/02/10 05:48:52;;;;;;;30.23;13.23;;;;;;;10.31;41.67;103464.81;5055089;28;20124;-64
2023/02/10 05:51:18;;;;;;;33.47;13.43;;;;;;;10.32;42.20;103461.22;5055318;28;20041;-64
2023/02/10 05:53:43;;;;;;;32.97;13.98;;;;;;;10.34;42.22;103469.16;5053726;28;20583;-62
2023/02/10 05:56:08;;;;;;;30.85;14.32;;;;;;;10.35;41.39;103465.56;5054943;28;20045;-64
2023/02/10 05:58:34;;;;;;;29.13;14.02;;;;;;;10.36;42.18;103467.28;5054800;28;20071;-63
2023/02/10 06:00:59;;;;;;;31.70;14.02;;;;;;;10.35;41.06;103463.75;5053761;28;20025;-64
2023/02/10 06:03:25;;;;;;;37.58;14.80;;;;;;;10.34;41.81;103458.44;5055092;28;20044;-64
2023/02/10 06:05:50;;;;;;;36.13;16.55;;;;;;;10.33;42.13;103448.69;5053339;28;20036;-63
2023/02/10 06:08:16;;;;;;;39.53;14.45;;;;;;;10.28;41.79;103454.22;5038215;28;20128;-64
2023/02/10 06:10:42;;;;;;;46.05;15.65;;;;;;;10.26;42.22;103455.22;5034491;28;20108;-62
2023/02/10 06:13:07;;;;;;;37.83;15.27;;;;;;;10.26;42.18;103455.22;5034619;28;20058;-64
2023/02/10 06:15:32;;;;;;;37.08;14.88;;;;;;;10.26;42.02;103465.94;5035032;28;20032;-64
2023/02/10 06:17:58;;;;;;;45.08;16.42;;;;;;;10.27;42.16;103473.88;5033462;28;20041;-63
2023/02/10 06:20:23;;;;;;;42.50;16.08;;;;;;;10.29;41.47;103479.19;5033262;28;20058;-64
2023/02/10 06:22:49;;;;;;;33.95;13.20;;;;;;;10.29;42.04;103471.16;5034456;28;20387;-64
2023/02/10 06:25:14;;;;;;;35.58;13.30;;;;;;;10.31;42.23;103480.00;5033603;28;20509;-65
2023/02/10 06:27:39;;;;;;;31.15;12.13;;;;;;;10.30;41.99;103483.63;5034146;28;20139;-65
2023/02/10 06:30:05;;;;;;;36.22;13.45;;;;;;;10.29;41.58;103489.91;5034762;28;20071;-66
2023/02/10 06:32:31;;;;;;;30.85;13.68;;;;;;;10.30;42.17;103494.34;5034460;28;20433;-62
2023/02/10 06:34:56;;;;;;;33.00;13.57;;;;;;;10.29;41.64;103487.25;5034728;28;20056;-63
2023/02/10 06:37:21;;;;;;;32.42;12.80;;;;;;;10.31;41.92;103507.66;5016641;28;20087;-64
2023/02/10 06:39:47;;;;;;;30.50;13.52;;;;;;;10.31;41.94;103501.44;5032594;28;20120;-65
2023/02/10 06:42:12;;;;;;;29.02;12.15;;;;;;;10.30;41.83;103497.03;5034389;28;20079;-65
2023/02/10 06:44:38;;;;;;;27.65;12.80;;;;;;;10.26;41.81;103493.59;5034040;28;20513;-64
2023/02/10 06:47:03;;;;;;;30.42;12.30;;;;;;;10.22;41.91;103497.31;5034243;28;20128;-64
2023/02/10 06:49:28;;;;;;;33.95;13.20;;;;;;;10.18;41.56;103501.06;5033925;28;20036;-66
2023/02/10 06:51:55;;;;;;;31.55;11.20;;;;;;;10.16;41.47;103502.06;5032741;28;20486;-65
2023/02/10 06:54:20;;;;;;;27.55;12.63;;;;;;;10.12;41.75;103493.25;5033953;28;20033;-63
2023/02/10 06:56:45;;;;;;;36.83;13.40;;;;;;;10.11;41.76;103499.50;5033678;28;20099;-65
2023/02/10 06:59:11;;;;;;;27.75;11.70;;;;;;;10.09;42.36;103490.69;5033708;28;20467;-65
2023/02/10 07:01:37;;;;;;;28.92;13.07;;;;;;;10.06;41.90;103482.75;5033945;28;20037;-64
2023/02/10 07:04:02;;;;;;;29.48;12.77;;;;;;;10.04;42.05;103494.47;5033722;28;20025;-64
2023/02/10 07:06:28;;;;;;;32.63;13.10;;;;;;;10.04;42.37;103498.03;5033841;28;20087;-65
2023/02/10 07:08:53;;;;;;;35.33;12.10;;;;;;;10.06;42.28;103495.28;5033643;28;20040;-65
2023/02/10 07:11:19;;;;;;;33.67;12.35;;;;;;;10.06;41.96;103497.94;5033369;28;20037;-64
2023/02/10 07:13:44;;;;;;;31.92;12.25;;;;;;;10.06;42.32;103490.78;5034075;28;20041;-63
2023/02/10 07:16:14;;;;;;;28.13;11.88;;;;;;;10.08;41.24;103485.41;5033717;28;20049;-65
2023/02/10 07:18:39;;;;;;;32.70;12.32;;;;;;;10.09;42.27;103490.69;5033115;28;20029;-65
2023/02/10 07:21:05;;;;;;;33.15;12.00;;;;;;;10.10;41.29;103486.19;5032374;28;20040;-63
2023/02/10 07:23:30;;;;;;;36.17;13.18;;;;;;;10.13;42.28;103491.47;5031952;28;20037;-63
2023/02/10 07:25:56;;;;;;;33.42;12.95;;;;;;;10.17;42.05;103493.06;5033399;28;20037;-64
2023/02/10 07:28:21;;;;;;;34.10;12.25;;;;;;;10.22;42.16;103496.44;5032719;28;20041;-63
2023/02/10 07:30:46;;;;;;;31.92;14.27;;;;;;;10.26;42.18;103503.44;5033369;28;20025;-65
2023/02/10 07:33:12;;;;;;;36.60;12.55;;;;;;;10.33;42.40;103505.78;5033935;28;20033;-65
2023/02/10 07:35:37;;;;;;;38.80;14.68;;;;;;;10.40;42.22;103511.78;5033263;28;20033;-64
2023/02/10 07:38:03;;;;;;;42.13;14.32;;;;;;;10.46;42.22;103506.19;5033003;28;20401;-65
2023/02/10 07:40:29;;;;;;;28.20;13.25;;;;;;;10.52;42.16;103505.94;5032912;28;20041;-64
2023/02/10 07:42:55;;;;;;;34.45;13.35;;;;;;;10.55;42.67;103495.09;5033206;28;20076;-65
2023/02/10 07:45:21;;;;;;;32.60;13.07;;;;;;;10.64;42.06;103494.69;5033604;28;20033;-64
2023/02/10 07:47:46;;;;;;;40.65;14.45;;;;;;;10.70;42.25;103491.75;5033161;28;20431;-65
2023/02/10 07:50:12;;;;;;;40.90;13.32;;;;;;;10.75;42.19;103497.78;5033006;28;20073;-63
2023/02/10 07:52:37;;;;;;;39.25;15.02;;;;;;;10.84;41.96;103502.78;5033071;28;20048;-63
2023/02/10 07:55:04;;;;;;;30.25;13.07;;;;;;;10.91;42.58;103506.94;5033137;28;20056;-63
2023/02/10 07:57:29;;;;;;;31.40;12.48;;;;;;;11.00;42.13;103509.22;5033427;28;20034;-64
2023/02/10 07:59:55;;;;;;;38.13;14.98;;;;;;;11.06;42.00;103505.41;5031634;28;20064;-65
2023/02/10 08:02:20;;;;;;;38.90;13.90;;;;;;;11.10;41.97;103513.25;5031467;28;20041;-65
2023/02/10 08:04:45;;;;;;;39.85;13.55;;;;;;;11.17;42.26;103521.03;5033018;28;20159;-63
2023/02/10 08:07:11;;;;;;;44.15;15.57;;;;;;;11.24;41.84;103528.75;5032911;28;20075;-65
2023/02/10 08:09:37;;;;;;;33.53;13.43;;;;;;;11.31;42.17;103540.06;5032955;28;20035;-64
2023/02/10 08:12:03;;;;;;;32.83;13.20;;;;;;;11.37;41.91;103524.56;5033192;28;20481;-63
2023/02/10 08:14:28;;;;;;;33.35;13.88;;;;;;;11.42;42.04;103538.66;5032679;28;20033;-63
2023/02/10 08:16:53;;;;;;;38.50;14.10;;;;;;;11.49;42.32;103540.16;5032742;28;20120;-65
2023/02/10 08:19:19;;;;;;;33.88;13.55;;;;;;;11.61;41.85;103538.72;5050997;28;20037;-63
2023/02/10 08:21:44;;;;;;;31.77;12.57;;;;;;;11.73;41.94;103531.94;5052804;28;20067;-64
2023/02/10 08:24:10;;;;;;;38.20;13.98;;;;;;;11.84;42.05;103533.19;5053330;28;20390;-64
2023/02/10 08:26:35;;;;;;;35.33;13.80;;;;;;;11.96;41.78;103537.13;5052398;28;20049;-65
2023/02/10 08:29:00;;;;;;;30.80;14.18;;;;;;;12.04;41.27;103525.06;5052572;28;20116;-65
2023/02/10 08:31:26;;;;;;;37.53;15.25;;;;;;;12.13;41.90;103527.34;5052208;28;20057;-64
2023/02/10 08:33:52;;;;;;;29.67;12.43;;;;;;;12.20;41.53;103534.16;5052490;28;20041;-63
2023/02/10 08:36:18;;;;;;;32.70;12.88;;;;;;;12.26;41.13;103531.16;5053076;28;20036;-63
2023/02/10 08:38:45;;;;;;;39.45;13.05;;;;;;;12.31;41.13;103530.94;5052295;28;20037;-63
2023/02/10 08:41:10;;;;;;;30.17;15.02;;;;;;;12.36;41.78;103533.44;5055038;28;20040;-63
2023/02/10 08:43:35;;;;;;;37.05;15.63;;;;;;;12.40;41.26;103530.50;5056130;28;20037;-65
2023/02/10 08:46:02;;;;;;;40.67;14.80;;;;;;;12.47;40.72;103520.34;5056155;28;20033;-65
2023/02/10 08:48:30;;;;;;;30.35;13.00;;;;;;;12.50;41.76;103525.56;5057779;28;20401;-64
2023/02/10 08:50:55;;;;;;;37.45;14.63;;;;;;;12.51;41.29;103528.16;5056333;28;20049;-63
2023/02/10 08:53:20;;;;;;;34.60;15.77;;;;;;;12.59;41.28;103530.50;5056648;28;20043;-63
2023/02/10 08:56:07;;;;;;;31.42;14.43;;;;;;;12.75;41.07;103526.09;5056093;28;20481;-65
2023/02/10 08:58:33;;;;;;;36.47;14.10;;;;;;;12.91;40.60;103521.66;5055952;28;20039;-65
2023/02/10 09:00:58;;;;;;;33.97;13.93;;;;;;;13.09;40.69;103519.91;5037737;28;20037;-63
2023/02/10 09:03:24;;;;;;;40.05;15.60;;;;;;;13.24;41.22;103525.34;5056310;28;20122;-64
2023/02/10 09:05:49;;;;;;;37.83;15.75;;;;;;;13.49;40.49;103540.19;5054691;28;20044;-64
2023/02/10 09:08:16;;;;;;;41.40;16.92;;;;;;;13.74;39.77;103537.91;5054542;28;20513;-63
2023/02/10 09:10:43;;;;;;;35.17;14.45;;;;;;;13.98;39.93;103544.69;5054664;28;20039;-65
2023/02/10 09:13:09;;;;;;;37.65;15.63;;;;;;;14.22;39.52;103531.66;5055621;28;20507;-64
2023/02/10 09:15:40;;;;;;;41.38;16.40;;;;;;;14.23;40.10;103538.78;5055557;28;20040;-63
2023/02/10 09:18:06;;;;;;;41.67;15.57;;;;;;;14.35;40.80;103533.59;5055734;28;20060;-65
2023/02/10 09:20:32;;;;;;;34.42;14.68;;;;;;;14.52;39.42;103529.94;5055640;28;20412;-63
2023/02/10 09:22:57;;;;;;;37.05;16.30;;;;;;;14.69;39.56;103526.25;5055653;28;20036;-65
2023/02/10 09:25:22;;;;;;;38.85;16.45;;;;;;;14.98;40.55;103528.13;5055681;28;20568;-64
2023/02/10 09:27:48;;;;;;;38.72;16.90;;;;;;;15.24;39.81;103524.72;5055310;28;20103;-65
2023/02/10 09:30:13;;;;;;;34.92;15.73;;;;;;;15.43;39.96;103530.72;5055698;28;20541;-64
2023/02/10 09:32:39;;;;;;;38.33;16.20;;;;;;;15.60;39.48;103532.44;5055848;28;20083;-63
2023/02/10 09:35:05;;;;;;;36.72;15.07;;;;;;;15.60;40.41;103530.59;5053947;28;20128;-65
2023/02/10 09:37:30;;;;;;;36.42;15.65;;;;;;;15.83;38.65;103536.41;5055141;28;20033;-65
2023/02/10 09:39:55;;;;;;;39.38;16.35;;;;;;;16.36;38.74;103533.78;5055404;28;20040;-63
2023/02/10 09:42:27;;;;;;;34.75;16.38;;;;;;;16.24;38.61;103526.50;5055683;28;20432;-63
2023/02/10 09:44:59;;;;;;;37.83;16.02;;;;;;;16.26;38.64;103520.00;5055074;28;20527;-65
2023/02/10 09:47:27;;;;;;;32.57;15.47;;;;;;;16.21;39.48;103532.09;5053800;28;20436;-64
2023/02/10 09:50:04;;;;;;;37.88;15.38;;;;;;;16.04;40.09;103521.50;5055286;28;20323;-64
2023/02/10 09:52:52;;;;;;;36.15;15.40;;;;;;;16.34;38.95;103514.09;5054699;28;20505;-65
2023/02/10 09:55:20;;;;;;;37.63;17.35;;;;;;;16.55;38.13;103515.44;5055237;28;20378;-64
2023/02/10 09:57:50;;;;;;;33.45;15.68;;;;;;;16.79;37.92;103521.91;5055013;28;20032;-64
2023/02/10 10:00:30;;;;;;;36.30;16.98;;;;;;;16.95;38.84;103520.84;5054199;28;20032;-64
2023/02/10 10:02:56;;;;;;;38.03;17.63;;;;;;;16.98;38.72;103515.22;5054725;28;20037;-64
2023/02/10 10:05:47;;;;;;;35.00;16.45;;;;;;;17.15;37.59;103512.22;5053481;28;20033;-65
2023/02/10 10:08:51;;;;;;;36.33;15.80;;;;;;;17.63;37.56;103518.78;5032487;28;20060;-64
2023/02/10 10:11:35;;;;;;;43.40;16.25;;;;;;;17.98;37.19;103526.13;5031098;28;20481;-64
2023/02/10 10:14:01;;;;;;;36.97;15.82;;;;;;;17.81;38.38;103523.75;5054563;28;20124;-65
2023/02/10 10:16:35;;;;;;;53.05;17.65;;;;;;;17.98;37.07;103528.81;5054410;28;20104;-65
2023/02/10 10:19:17;;;;;;;36.53;16.33;;;;;;;17.98;36.89;103531.53;5054360;28;20481;-65
2023/02/10 10:22:19;;;;;;;36.13;16.60;;;;;;;18.14;37.87;103546.72;5054211;28;20135;-65
2023/02/10 10:24:50;;;;;;;35.28;16.67;;;;;;;18.16;37.49;103539.31;5044273;28;20041;-65
2023/02/10 10:27:27;;;;;;;40.45;17.00;;;;;;;18.17;37.23;103535.63;5054514;28;20060;-64
2023/02/10 10:29:55;;;;;;;34.00;16.70;;;;;;;18.23;37.61;103529.78;5053147;28;20043;-64
2023/02/10 10:32:36;;;;;;;35.58;16.67;;;;;;;18.23;36.93;103535.19;5053921;28;20044;-65
2023/02/10 10:35:02;;;;;;;37.35;16.20;;;;;;;18.22;37.33;103545.19;5053056;28;20040;-65
2023/02/10 10:37:27;;;;;;;35.30;16.63;;;;;;;18.30;36.93;103533.75;5054084;28;20492;-65
2023/02/10 10:39:57;;;;;;;33.45;16.25;;;;;;;18.32;37.42;103543.50;5053797;28;20037;-65
2023/02/10 10:42:34;;;;;;;37.65;16.13;;;;;;;18.58;36.97;103541.63;5054395;28;20067;-65
2023/02/10 10:45:06;;;;;;;30.52;15.07;;;;;;;18.43;36.88;103524.56;5052686;28;20078;-65
2023/02/10 10:47:41;;;;;;;34.13;15.90;;;;;;;18.42;36.59;103538.28;5053987;28;20045;-65
2023/02/10 10:50:13;;;;;;;36.40;15.27;;;;;;;18.78;36.41;103527.41;5052762;28;20060;-65
2023/02/10 10:52:40;;;;;;;34.35;15.48;;;;;;;18.96;36.36;103530.53;5052344;28;20107;-64
2023/02/10 10:55:14;;;;;;;34.10;15.63;;;;;;;19.38;36.09;103526.34;5053628;28;20420;-65
2023/02/10 10:57:40;;;;;;;36.13;16.40;;;;;;;19.86;35.34;103514.31;5052337;28;20045;-65
2023/02/10 11:00:27;;;;;;;27.85;15.23;;;;;;;20.35;35.63;103513.06;5054320;28;20024;-65
2023/02/10 11:02:53;;;;;;;28.92;14.88;;;;;;;20.75;34.91;103508.72;5052821;28;20409;-64
2023/02/10 11:05:20;;;;;;;31.83;15.50;;;;;;;21.12;34.76;103509.19;5053528;28;20501;-64
2023/02/10 11:07:51;;;;;;;33.47;15.57;;;;;;;21.41;34.62;103505.66;5053671;28;20033;-63
2023/02/10 11:10:22;;;;;;;29.38;14.65;;;;;;;21.69;34.10;103508.69;5053432;28;20048;-65
2023/02/10 11:12:48;;;;;;;31.15;15.90;;;;;;;21.90;33.96;103507.66;5053330;28;20551;-65
2023/02/10 11:15:26;;;;;;;30.50;14.52;;;;;;;22.10;33.45;103502.28;5053900;28;20117;-64